KARB/ARB METAR and TAF weather

Enter ICAO airport designator
Station Type Date Time Source
KARB METAR 2018/09/21 22:53 UTC NOAA

KARB 212253Z 26018G28KT 10SM CLR 23/12 A2993 RMK AO2 PK WND 26030/2155 SLP129 T02280117


Station Type Date Time Source
KARB Decoded METAR 2018/09/21 22:53 UTC NOAA

ANN ARBOR MUNICIPAL AIRPORT, MI, United States (KARB) 42-13N 083-45W 251M
Sep 21, 2018 - 06:53 PM EDT / 2018.09.21 2253 UTC
Wind: from the W (260 degrees) at 21 MPH (18 KT) gusting to 32 MPH (28 KT):0
Visibility: 10 mile(s):0
Sky conditions: clear
Temperature: 73.0 F (22.8 C)
Dew Point: 53.1 F (11.7 C)
Relative Humidity: 49%
Pressure (altimeter): 29.93 in. Hg (1013 hPa)
ob: KARB 212253Z 26018G28KT 10SM CLR 23/12 A2993 RMK AO2 PK WND 26030/2155 SLP129 T02280117
cycle: 23

Station Type Date Time Source
KARB TAF UTC NOAA

Error!


Example: see airport list